createdAt,value
2019-04-26T00:02:42.947Z,11.50
2019-04-26T00:05:14.447Z,11.50
2019-04-26T00:07:44.538Z,11.50
2019-04-26T00:10:26.438Z,11.40
2019-04-26T00:13:02.789Z,11.40
2019-04-26T00:15:45.535Z,11.30
2019-04-26T00:18:14.716Z,11.30
2019-04-26T00:20:43.730Z,11.40
2019-04-26T00:23:12.669Z,11.40
2019-04-26T00:25:41.635Z,11.20
2019-04-26T00:28:11.480Z,11.20
2019-04-26T00:30:41.198Z,11.10
2019-04-26T00:33:11.925Z,11.00
2019-04-26T00:35:47.600Z,10.90
2019-04-26T00:38:14.518Z,10.90
2019-04-26T00:40:48.790Z,10.80
2019-04-26T00:43:18.565Z,10.80
2019-04-26T00:45:51.719Z,10.70
2019-04-26T00:48:23.189Z,10.80
2019-04-26T00:50:53.616Z,10.80
2019-04-26T00:53:24.289Z,10.90
2019-04-26T00:55:54.235Z,10.90
2019-04-26T00:58:24.496Z,11.00
2019-04-26T01:00:56.030Z,10.90
2019-04-26T01:03:25.035Z,10.90
2019-04-26T01:06:00.086Z,11.00
2019-04-26T01:08:26.369Z,10.90
2019-04-26T01:10:55.219Z,11.00
2019-04-26T01:13:24.152Z,11.00
2019-04-26T01:15:55.470Z,10.90
2019-04-26T01:18:24.473Z,11.00
2019-04-26T01:20:56.198Z,11.00
2019-04-26T01:23:27.540Z,11.10
2019-04-26T01:26:11.398Z,11.10
2019-04-26T01:28:50.187Z,11.00
2019-04-26T01:31:23.930Z,11.00
2019-04-26T01:33:52.973Z,10.90
2019-04-26T01:36:24.315Z,11.00
2019-04-26T01:38:56.448Z,11.10
2019-04-26T01:41:35.554Z,11.20
2019-04-26T01:44:13.181Z,11.20
2019-04-26T01:46:45.084Z,11.30
2019-04-26T01:49:16.925Z,11.10
2019-04-26T01:51:57.966Z,11.10
2019-04-26T01:54:31.977Z,11.20
2019-04-26T01:57:04.101Z,11.10
2019-04-26T01:59:36.519Z,11.10
2019-04-26T02:02:22.330Z,11.10
2019-04-26T02:04:54.273Z,11.10
2019-04-26T02:07:40.640Z,11.10
2019-04-26T02:10:13.026Z,11.10
2019-04-26T02:12:44.986Z,11.10
2019-04-26T02:15:15.827Z,11.10
2019-04-26T02:17:45.740Z,11.10
2019-04-26T02:20:16.479Z,11.20
2019-04-26T02:23:10.311Z,11.30
2019-04-26T02:25:39.590Z,11.40
2019-04-26T02:28:08.545Z,11.40
2019-04-26T02:30:39.320Z,11.30
2019-04-26T02:33:08.639Z,11.40
2019-04-26T02:35:37.740Z,11.40
2019-04-26T02:38:06.667Z,11.40
2019-04-26T02:40:36.796Z,11.30
2019-04-26T02:43:06.104Z,11.40
2019-04-26T02:46:02.119Z,11.40
2019-04-26T02:49:17.584Z,11.40
2019-04-26T02:51:59.540Z,11.40
2019-04-26T02:54:48.008Z,11.50
2019-04-26T02:57:23.327Z,11.60
2019-04-26T02:59:57.829Z,11.60
2019-04-26T03:02:32.228Z,11.40
2019-04-26T03:05:05.645Z,11.50
2019-04-26T03:07:56.688Z,11.50
2019-04-26T03:10:32.632Z,11.40
2019-04-26T03:13:10.642Z,11.50
2019-04-26T03:15:59.842Z,11.50
2019-04-26T03:18:41.611Z,11.50
2019-04-26T03:21:20.399Z,11.50
2019-04-26T03:24:00.686Z,11.40
2019-04-26T03:26:43.157Z,11.40
2019-04-26T03:29:41.988Z,11.30
2019-04-26T03:32:50.411Z,11.30
2019-04-26T03:35:49.278Z,11.30
2019-04-26T03:38:38.286Z,11.30
2019-04-26T03:41:24.619Z,11.30
2019-04-26T03:44:06.678Z,11.20
2019-04-26T03:47:02.092Z,11.20
2019-04-26T03:49:54.562Z,11.40
2019-04-26T03:52:45.422Z,11.40
2019-04-26T03:55:51.832Z,11.40
2019-04-26T03:58:29.841Z,11.30
2019-04-26T04:01:07.338Z,11.30
2019-04-26T04:04:07.340Z,11.30
2019-04-26T04:06:56.697Z,11.40
2019-04-26T04:09:10.741Z,11.40
2019-04-26T04:12:09.627Z,11.40
2019-04-26T04:14:37.747Z,11.50
2019-04-26T04:17:18.964Z,11.50
2019-04-26T04:20:23.344Z,11.50
2019-04-26T04:23:17.336Z,11.60
2019-04-26T04:25:49.411Z,11.50
2019-04-26T04:28:46.497Z,11.40
2019-04-26T04:31:25.168Z,11.40
2019-04-26T04:34:10.361Z,11.30
2019-04-26T04:36:50.580Z,11.40
2019-04-26T04:39:44.395Z,11.40
2019-04-26T04:42:33.560Z,11.50
2019-04-26T04:45:28.358Z,11.40
2019-04-26T04:48:32.560Z,11.30
2019-04-26T04:51:46.220Z,11.30
2019-04-26T04:54:24.375Z,11.30
2019-04-26T04:57:18.159Z,11.30
2019-04-26T04:59:57.975Z,11.10
2019-04-26T05:03:00.435Z,11.00
2019-04-26T05:05:49.510Z,11.00
2019-04-26T05:08:44.521Z,10.90
2019-04-26T05:11:21.087Z,10.90
2019-04-26T05:14:31.104Z,10.90
2019-04-26T05:17:21.748Z,10.90
2019-04-26T05:20:17.092Z,10.90
2019-04-26T05:23:20.100Z,10.90
2019-04-26T05:26:29.105Z,10.80
2019-04-26T05:29:38.337Z,10.90
2019-04-26T05:32:23.491Z,11.00
2019-04-26T05:35:02.627Z,10.80
2019-04-26T05:38:17.965Z,10.80
2019-04-26T05:41:10.455Z,10.70
2019-04-26T05:43:58.481Z,10.60
2019-04-26T05:47:17.633Z,10.60
2019-04-26T05:50:42.960Z,10.50
2019-04-26T05:54:38.062Z,10.50
2019-04-26T05:57:41.802Z,10.60
2019-04-26T06:00:46.538Z,10.50
2019-04-26T06:03:49.825Z,10.40
2019-04-26T06:06:36.127Z,10.40
2019-04-26T06:09:50.350Z,10.40
2019-04-26T06:12:51.066Z,10.30
2019-04-26T06:15:36.984Z,10.30
2019-04-26T06:18:36.708Z,10.30
2019-04-26T06:21:32.410Z,10.40
2019-04-26T06:24:36.902Z,10.50
2019-04-26T06:27:49.052Z,10.70
2019-04-26T06:30:25.167Z,10.90
2019-04-26T06:33:07.670Z,11.00
2019-04-26T06:35:45.061Z,11.00
2019-04-26T06:38:59.935Z,11.00
2019-04-26T06:42:07.368Z,11.00
2019-04-26T06:45:08.675Z,11.10
2019-04-26T06:47:54.449Z,11.30
2019-04-26T06:50:33.998Z,11.40
2019-04-26T06:53:13.571Z,11.30
2019-04-26T06:56:11.757Z,11.20
2019-04-26T06:59:08.822Z,11.40
2019-04-26T07:01:49.177Z,11.40
2019-04-26T07:04:39.969Z,11.20
2019-04-26T07:07:31.237Z,11.10
2019-04-26T07:10:41.771Z,11.20
2019-04-26T07:13:46.788Z,11.10
2019-04-26T07:16:56.825Z,11.10
2019-04-26T07:20:07.791Z,11.00
2019-04-26T07:23:24.540Z,11.10
2019-04-26T07:26:25.481Z,11.00
2019-04-26T07:29:28.273Z,11.10
2019-04-26T07:32:16.071Z,11.10
2019-04-26T07:35:06.925Z,11.10
2019-04-26T07:38:24.394Z,11.00
2019-04-26T07:41:27.160Z,11.00
2019-04-26T07:44:33.202Z,10.90
2019-04-26T07:48:11.914Z,11.00
2019-04-26T07:51:33.079Z,11.10
2019-04-26T07:54:41.163Z,11.30
2019-04-26T07:57:43.482Z,11.50
2019-04-26T08:00:18.055Z,11.50
2019-04-26T08:03:13.775Z,11.40
2019-04-26T08:06:13.718Z,11.40
2019-04-26T08:08:52.091Z,11.30
2019-04-26T08:11:28.926Z,11.30
2019-04-26T08:14:09.583Z,11.30
2019-04-26T08:16:54.130Z,11.30
2019-04-26T08:19:26.275Z,11.20
2019-04-26T08:22:11.597Z,11.10
2019-04-26T08:24:30.870Z,11.20
2019-04-26T08:27:24.265Z,11.30
2019-04-26T08:30:03.442Z,11.70
2019-04-26T08:32:34.982Z,11.60
2019-04-26T08:35:22.091Z,11.60
2019-04-26T08:37:56.018Z,11.40
2019-04-26T08:40:31.037Z,11.40
2019-04-26T08:43:30.754Z,11.40
2019-04-26T08:46:45.164Z,11.40
2019-04-26T08:50:03.946Z,11.50
2019-04-26T08:52:38.160Z,11.60
2019-04-26T08:55:16.657Z,11.60
2019-04-26T09:01:22.271Z,11.60
2019-04-26T09:04:00.135Z,11.50
2019-04-26T09:07:06.342Z,11.60
2019-04-26T09:09:38.999Z,11.50
2019-04-26T09:12:22.850Z,11.50
2019-04-26T09:14:50.768Z,11.70
2019-04-26T09:17:19.652Z,11.70
2019-04-26T09:19:51.207Z,11.80
2019-04-26T09:22:33.991Z,11.80
2019-04-26T09:25:22.868Z,11.80
2019-04-26T09:28:13.287Z,11.90
2019-04-26T09:30:55.076Z,12.10
2019-04-26T09:33:42.530Z,12.30
2019-04-26T09:36:13.958Z,12.20
2019-04-26T09:38:46.577Z,12.20
2019-04-26T09:41:15.775Z,12.10
2019-04-26T09:44:00.378Z,11.90
2019-04-26T09:47:09.924Z,12.10
2019-04-26T09:49:43.199Z,12.30
2019-04-26T09:52:18.259Z,12.40
2019-04-26T09:54:47.126Z,12.50
2019-04-26T09:57:15.890Z,12.60
2019-04-26T09:59:46.317Z,12.40
2019-04-26T10:02:16.826Z,12.30
2019-04-26T10:04:45.639Z,12.50
2019-04-26T10:07:21.732Z,12.70
2019-04-26T10:09:56.392Z,12.70
2019-04-26T10:12:32.189Z,12.70
2019-04-26T10:15:13.465Z,12.80
2019-04-26T10:17:42.370Z,12.80
2019-04-26T10:20:11.418Z,12.60
2019-04-26T10:22:40.191Z,12.80
2019-04-26T10:25:16.549Z,12.90
2019-04-26T10:27:41.055Z,13.00
2019-04-26T10:30:14.321Z,12.90
2019-04-26T10:32:48.710Z,13.20
2019-04-26T10:35:21.717Z,13.20
2019-04-26T10:37:52.575Z,13.20
2019-04-26T10:40:35.013Z,13.00
2019-04-26T10:42:54.350Z,12.80
2019-04-26T10:45:23.490Z,12.70
2019-04-26T10:47:53.826Z,12.50
2019-04-26T10:50:22.877Z,12.30
2019-04-26T10:52:57.534Z,12.40
2019-04-26T10:55:46.564Z,12.60
2019-04-26T10:58:54.145Z,12.70
2019-04-26T11:01:23.170Z,12.80
2019-04-26T11:03:51.934Z,13.10
2019-04-26T11:06:27.739Z,13.20
2019-04-26T11:08:55.577Z,13.50
2019-04-26T11:11:24.416Z,13.40
2019-04-26T11:13:57.604Z,13.50
2019-04-26T11:16:27.141Z,13.50
2019-04-26T11:18:57.255Z,13.90
2019-04-26T11:21:26.714Z,14.50
2019-04-26T11:23:55.509Z,14.20
2019-04-26T11:26:24.261Z,13.90
2019-04-26T11:28:56.032Z,13.80
2019-04-26T11:31:29.266Z,13.60
2019-04-26T11:34:05.232Z,13.50
2019-04-26T11:36:29.124Z,13.70
2019-04-26T11:39:01.263Z,14.00
2019-04-26T11:41:28.482Z,14.20
2019-04-26T11:43:57.229Z,14.20
2019-04-26T11:46:29.401Z,14.00
2019-04-26T11:48:59.142Z,14.10
2019-04-26T11:51:28.557Z,14.10
2019-04-26T11:53:58.606Z,14.20
2019-04-26T11:56:30.380Z,14.10
2019-04-26T11:58:59.143Z,14.10
2019-04-26T12:01:29.493Z,14.20
2019-04-26T12:04:10.124Z,14.00
2019-04-26T12:06:49.936Z,14.00
2019-04-26T12:09:27.684Z,13.70
2019-04-26T12:12:04.678Z,13.60
2019-04-26T12:14:34.400Z,13.90
2019-04-26T12:17:06.550Z,13.40
2019-04-26T12:19:35.370Z,13.40
2019-04-26T12:22:08.142Z,13.70
2019-04-26T12:24:34.815Z,13.60
2019-04-26T12:27:03.746Z,13.70
2019-04-26T12:29:32.770Z,13.50
2019-04-26T12:32:02.369Z,13.80
2019-04-26T12:34:31.193Z,13.60
2019-04-26T12:37:01.632Z,13.90
2019-04-26T12:39:32.336Z,14.30
2019-04-26T12:42:00.991Z,14.80
2019-04-26T12:44:41.066Z,14.80
2019-04-26T12:47:16.746Z,15.10
2019-04-26T12:49:48.426Z,15.40
2019-04-26T12:52:22.837Z,15.00
2019-04-26T12:54:51.746Z,14.20
2019-04-26T12:57:26.188Z,13.70
2019-04-26T12:59:57.497Z,13.60
2019-04-26T13:02:28.615Z,13.30
2019-04-26T13:04:57.402Z,13.30
2019-04-26T13:07:26.170Z,13.40
2019-04-26T13:10:12.693Z,13.40
2019-04-26T13:12:56.804Z,13.40
2019-04-26T13:16:02.541Z,13.10
2019-04-26T13:18:31.481Z,13.20
2019-04-26T13:21:03.021Z,13.40
2019-04-26T13:23:35.374Z,13.50
2019-04-26T13:26:04.247Z,13.50
2019-04-26T13:28:34.642Z,13.50
2019-04-26T13:31:03.514Z,13.80
2019-04-26T13:33:32.382Z,14.40
2019-04-26T13:36:04.118Z,14.80
2019-04-26T13:38:35.284Z,14.90
2019-04-26T13:41:07.255Z,14.80
2019-04-26T13:43:36.130Z,14.90
2019-04-26T13:46:36.392Z,14.90
2019-04-26T13:49:19.385Z,15.00
2019-04-26T13:51:49.615Z,14.80
2019-04-26T13:54:21.190Z,14.90
2019-04-26T13:56:50.109Z,14.80
2019-04-26T13:59:21.028Z,14.90
2019-04-26T14:01:50.839Z,15.30
2019-04-26T14:04:19.739Z,15.30
2019-04-26T14:06:49.822Z,15.50
2019-04-26T14:09:19.270Z,15.50
2019-04-26T14:11:49.106Z,15.30
2019-04-26T14:14:21.337Z,16.00
2019-04-26T14:16:52.075Z,15.80
2019-04-26T14:19:22.765Z,15.90
2019-04-26T14:21:52.157Z,16.30
2019-04-26T14:24:39.784Z,16.70
2019-04-26T14:27:14.937Z,16.30
2019-04-26T14:29:43.255Z,16.20
2019-04-26T14:32:12.441Z,16.60
2019-04-26T14:34:42.007Z,16.50
2019-04-26T14:37:15.561Z,16.40
2019-04-26T14:39:50.329Z,15.70
2019-04-26T14:42:15.578Z,15.30
2019-04-26T14:44:49.520Z,15.40
2019-04-26T14:47:18.138Z,15.10
2019-04-26T14:49:53.372Z,15.00
2019-04-26T14:52:24.001Z,14.90
2019-04-26T14:54:52.390Z,14.90
2019-04-26T14:57:28.427Z,14.80
2019-04-26T14:59:56.962Z,14.70
2019-04-26T15:02:47.320Z,14.80
2019-04-26T15:05:22.723Z,14.90
2019-04-26T15:07:53.654Z,15.00
2019-04-26T15:10:23.803Z,14.90
2019-04-26T15:12:56.701Z,15.00
2019-04-26T15:15:27.048Z,15.00
2019-04-26T15:17:59.293Z,15.00
2019-04-26T15:20:24.416Z,15.10
2019-04-26T15:22:54.843Z,15.00
2019-04-26T15:25:24.795Z,15.30
2019-04-26T15:27:53.552Z,15.10
2019-04-26T15:30:23.919Z,15.10
2019-04-26T15:32:53.039Z,15.20
2019-04-26T15:35:23.366Z,15.30
2019-04-26T15:37:53.570Z,15.20
2019-04-26T15:40:53.541Z,15.30
2019-04-26T15:43:42.824Z,15.30
2019-04-26T15:46:16.720Z,15.40
2019-04-26T15:49:09.511Z,15.60
2019-04-26T15:51:39.695Z,15.40
2019-04-26T15:54:10.872Z,15.30
2019-04-26T15:56:39.632Z,15.40
2019-04-26T15:59:08.412Z,15.40
2019-04-26T16:01:37.270Z,15.40
2019-04-26T16:04:06.629Z,15.60
2019-04-26T16:06:37.310Z,15.40
2019-04-26T16:09:08.261Z,15.30
2019-04-26T16:11:38.224Z,15.50
2019-04-26T16:14:07.188Z,15.60
2019-04-26T16:16:35.969Z,15.50
2019-04-26T16:19:05.995Z,15.20
2019-04-26T16:21:34.755Z,15.40
2019-04-26T16:24:04.834Z,15.40
2019-04-26T16:26:33.655Z,15.40
2019-04-26T16:29:24.452Z,15.30
2019-04-26T16:32:16.913Z,15.20
2019-04-26T16:34:47.604Z,15.10
2019-04-26T16:37:21.697Z,15.30
2019-04-26T16:39:49.645Z,15.20
2019-04-26T16:42:18.406Z,15.40
2019-04-26T16:44:47.210Z,15.40
2019-04-26T16:47:17.617Z,15.40
2019-04-26T16:49:48.526Z,15.50
2019-04-26T16:52:17.477Z,15.60
2019-04-26T16:54:46.327Z,15.60
2019-04-26T16:57:16.425Z,15.70
2019-04-26T16:59:51.166Z,15.70
2019-04-26T17:02:25.531Z,15.60
2019-04-26T17:04:53.370Z,15.40
2019-04-26T17:07:27.333Z,15.40
2019-04-26T17:09:59.007Z,15.40
2019-04-26T17:12:25.446Z,15.50
2019-04-26T17:14:55.374Z,15.40
2019-04-26T17:17:24.117Z,15.30
2019-04-26T17:19:52.924Z,15.30
2019-04-26T17:22:56.882Z,15.30
2019-04-26T17:25:24.382Z,15.20
2019-04-26T17:27:54.274Z,15.10
2019-04-26T17:30:25.177Z,15.10
2019-04-26T17:32:55.344Z,15.10
2019-04-26T17:35:25.473Z,15.10
2019-04-26T17:37:57.385Z,14.90
2019-04-26T17:40:30.200Z,15.00
2019-04-26T17:42:57.750Z,14.90
2019-04-26T17:45:30.535Z,14.90
2019-04-26T17:47:57.997Z,15.00
2019-04-26T17:50:30.859Z,15.00
2019-04-26T17:53:00.609Z,14.80
2019-04-26T17:55:33.365Z,14.80
2019-04-26T17:58:14.965Z,14.80
2019-04-26T18:00:46.651Z,14.70
2019-04-26T18:03:15.730Z,14.70
2019-04-26T18:05:56.745Z,14.60
2019-04-26T18:08:33.107Z,14.50
2019-04-26T18:10:47.048Z,14.50
2019-04-26T18:13:17.785Z,14.50
2019-04-26T18:15:48.455Z,14.50
2019-04-26T18:18:39.059Z,14.40
2019-04-26T18:21:29.807Z,14.30
2019-04-26T18:24:02.862Z,14.10
2019-04-26T18:26:32.786Z,14.00
2019-04-26T18:29:03.717Z,14.00
2019-04-26T18:31:33.603Z,13.90
2019-04-26T18:34:04.165Z,13.80
2019-04-26T18:36:33.412Z,13.80
2019-04-26T18:39:03.894Z,13.60
2019-04-26T18:41:33.939Z,13.60
2019-04-26T18:44:05.916Z,13.50
2019-04-26T18:46:56.528Z,13.50
2019-04-26T18:49:27.165Z,13.40
2019-04-26T18:51:58.886Z,13.40
2019-04-26T18:54:51.654Z,13.40
2019-04-26T18:57:21.354Z,13.40
2019-04-26T18:59:51.649Z,13.40
2019-04-26T19:02:23.536Z,13.40
2019-04-26T19:04:52.938Z,13.30
2019-04-26T19:07:32.513Z,13.20
2019-04-26T19:09:59.242Z,13.10
2019-04-26T19:12:27.206Z,13.20
2019-04-26T20:06:34.272Z,12.50
2019-04-26T20:09:06.262Z,12.20
2019-04-26T20:11:36.294Z,12.20
2019-04-26T20:14:05.197Z,12.20
2019-04-26T20:16:36.515Z,12.20
2019-04-26T20:19:08.156Z,12.20
2019-04-26T20:21:35.308Z,12.20
2019-04-26T20:24:04.222Z,12.00
2019-04-26T20:26:33.062Z,12.10
2019-04-26T20:29:06.114Z,12.20
2019-04-26T20:31:56.221Z,12.20
2019-04-26T20:34:26.112Z,12.10
2019-04-26T20:36:56.752Z,12.10
2019-04-26T20:39:25.828Z,12.10
2019-04-26T20:42:03.270Z,12.00
2019-04-26T20:44:47.341Z,12.00
2019-04-26T20:47:00.230Z,11.90
2019-04-26T20:49:32.162Z,11.80
2019-04-26T20:52:01.971Z,11.80
2019-04-26T20:54:31.655Z,11.70
2019-04-26T20:57:01.902Z,11.60
2019-04-26T20:59:32.816Z,11.60
2019-04-26T21:02:07.850Z,11.60
2019-04-26T21:04:38.299Z,11.50
2019-04-26T21:07:06.794Z,11.50
2019-04-26T21:09:40.867Z,11.50
2019-04-26T21:12:15.283Z,11.40
2019-04-26T21:14:44.498Z,11.40
2019-04-26T21:17:13.426Z,11.30
2019-04-26T21:19:54.354Z,11.30
2019-04-26T21:22:25.404Z,11.30
2019-04-26T21:25:00.160Z,11.30
2019-04-26T21:27:52.619Z,11.30
2019-04-26T21:30:45.776Z,11.30
2019-04-26T21:33:19.773Z,11.30
2019-04-26T21:36:13.720Z,11.30
2019-04-26T21:38:48.443Z,11.30
2019-04-26T21:41:31.091Z,11.20
2019-04-26T21:44:03.020Z,11.20
2019-04-26T21:46:35.115Z,11.10
2019-04-26T21:49:03.888Z,11.10
2019-04-26T21:51:34.054Z,11.10
2019-04-26T21:54:03.823Z,11.10
2019-04-26T21:56:33.753Z,11.10
2019-04-26T21:59:03.648Z,11.00
2019-04-26T22:07:08.481Z,10.90
2019-04-26T22:10:05.162Z,10.80
2019-04-26T22:12:36.204Z,10.80
2019-04-26T22:15:35.935Z,10.70
2019-04-26T22:18:10.391Z,10.60
2019-04-26T22:20:51.220Z,10.60
2019-04-26T22:23:25.371Z,10.60
2019-04-26T22:25:56.042Z,10.50
2019-04-26T22:28:31.311Z,10.60
2019-04-26T22:31:03.761Z,10.60
2019-04-26T22:33:34.113Z,10.60
2019-04-26T22:36:04.085Z,10.60
2019-04-26T22:38:33.964Z,10.80
2019-04-26T22:41:04.609Z,10.70
2019-04-26T22:43:49.677Z,10.70
2019-04-26T22:46:47.049Z,10.70
2019-04-26T22:49:13.864Z,10.80
2019-04-26T22:51:46.362Z,10.70
2019-04-26T22:54:15.588Z,10.60
2019-04-26T22:56:46.004Z,10.60
2019-04-26T22:59:16.694Z,10.60
2019-04-26T23:01:49.946Z,10.70
2019-04-26T23:04:26.238Z,10.70
2019-04-26T23:06:56.171Z,10.70
2019-04-26T23:09:24.727Z,10.70
2019-04-26T23:12:00.544Z,10.60
2019-04-26T23:14:48.259Z,10.50
2019-04-26T23:17:35.043Z,10.50
2019-04-26T23:20:18.070Z,10.40
2019-04-26T23:22:47.295Z,10.40
2019-04-26T23:25:20.689Z,10.40
2019-04-26T23:27:50.476Z,10.30
2019-04-26T23:30:20.061Z,10.30
2019-04-26T23:32:52.286Z,10.20
2019-04-26T23:35:20.346Z,10.20
2019-04-26T23:37:49.530Z,10.10
2019-04-26T23:40:20.609Z,10.10
2019-04-26T23:42:51.652Z,10.10
2019-04-26T23:45:20.528Z,10.10
2019-04-26T23:47:49.693Z,10.00
2019-04-26T23:50:19.014Z,9.90
2019-04-26T23:52:49.243Z,9.90
2019-04-26T23:55:19.018Z,9.80
2019-04-26T23:57:48.299Z,9.70
